createdAt,value
2023-05-10T00:00:35.017Z,28.95
2023-05-10T00:03:05.629Z,29.25
2023-05-10T00:05:33.561Z,29.45
2023-05-10T00:08:02.712Z,29.00
2023-05-10T00:10:30.552Z,29.33
2023-05-10T00:12:58.354Z,29.26
2023-05-10T00:15:26.154Z,29.28
2023-05-10T00:17:54.055Z,29.69
2023-05-10T00:20:22.046Z,29.52
2023-05-10T00:22:49.950Z,29.35
2023-05-10T00:25:19.940Z,29.64
2023-05-10T00:27:47.816Z,29.21
2023-05-10T00:30:16.152Z,29.53
2023-05-10T00:32:44.688Z,29.52
2023-05-10T00:35:12.423Z,29.31
2023-05-10T00:37:40.335Z,29.63
2023-05-10T00:40:09.531Z,29.78
2023-05-10T00:42:38.729Z,29.62
2023-05-10T00:45:08.208Z,29.51
2023-05-10T00:47:36.965Z,29.92
2023-05-10T00:50:05.730Z,29.67
2023-05-10T00:52:33.643Z,29.86
2023-05-10T00:55:02.434Z,29.88
2023-05-10T00:57:30.477Z,29.78
2023-05-10T01:00:01.326Z,30.05
2023-05-10T01:02:29.741Z,30.02
2023-05-10T01:04:57.660Z,29.83
2023-05-10T01:07:25.462Z,29.95
2023-05-10T01:09:53.461Z,29.95
2023-05-10T01:12:21.974Z,29.99
2023-05-10T01:14:50.528Z,30.01
2023-05-10T01:17:20.141Z,30.14
2023-05-10T01:19:48.342Z,30.26
2023-05-10T01:22:41.958Z,30.39
2023-05-10T01:25:30.445Z,30.12
2023-05-10T01:28:26.176Z,30.29
2023-05-10T01:31:20.709Z,30.38
2023-05-10T01:33:56.896Z,30.20
2023-05-10T01:36:32.760Z,30.20
2023-05-10T01:39:07.467Z,30.55
2023-05-10T01:41:42.136Z,30.00
2023-05-10T01:44:18.845Z,30.48
2023-05-10T01:46:55.358Z,30.14
2023-05-10T01:49:28.372Z,30.26
2023-05-10T01:52:08.443Z,30.52
2023-05-10T01:54:40.594Z,30.38
2023-05-10T01:57:11.093Z,30.56
2023-05-10T01:59:41.966Z,30.10
2023-05-10T02:02:12.950Z,30.95
2023-05-10T02:04:44.095Z,30.50
2023-05-10T02:07:12.659Z,30.04
2023-05-10T02:09:40.740Z,30.47
2023-05-10T02:12:09.683Z,30.48
2023-05-10T02:14:39.056Z,30.86
2023-05-10T02:17:09.695Z,30.61
2023-05-10T02:19:40.568Z,30.82
2023-05-10T02:22:11.019Z,31.01
2023-05-10T02:24:40.782Z,30.59
2023-05-10T02:27:10.858Z,30.88
2023-05-10T02:29:39.958Z,30.91
2023-05-10T02:32:08.387Z,30.65
2023-05-10T02:34:36.654Z,30.75
2023-05-10T02:37:04.931Z,30.64
2023-05-10T02:39:34.554Z,30.73
2023-05-10T02:42:03.833Z,30.87
2023-05-10T02:44:32.348Z,30.86
2023-05-10T02:47:00.928Z,30.81
2023-05-10T02:49:28.812Z,30.91
2023-05-10T02:52:02.137Z,31.42
2023-05-10T02:54:37.998Z,31.11
2023-05-10T02:57:07.933Z,30.95
2023-05-10T02:59:35.999Z,31.46
2023-05-10T03:02:04.284Z,31.17
2023-05-10T03:04:32.100Z,31.03
2023-05-10T03:07:00.234Z,30.80
2023-05-10T03:09:28.248Z,31.33
2023-05-10T03:12:05.271Z,31.38
2023-05-10T03:14:47.672Z,31.23
2023-05-10T03:17:21.649Z,31.77
2023-05-10T03:19:55.657Z,31.75
2023-05-10T03:22:28.321Z,31.28
2023-05-10T03:24:58.727Z,31.47
2023-05-10T03:27:30.053Z,31.93
2023-05-10T03:29:58.801Z,31.21
2023-05-10T03:32:28.128Z,31.67
2023-05-10T03:34:55.999Z,32.19
2023-05-10T03:37:23.764Z,31.94
2023-05-10T03:39:51.707Z,31.69
2023-05-10T03:42:19.807Z,32.07
2023-05-10T03:44:50.193Z,32.34
2023-05-10T03:47:18.054Z,32.20
2023-05-10T03:49:46.227Z,32.06
2023-05-10T03:52:14.249Z,32.44
2023-05-10T03:54:42.256Z,32.39
2023-05-10T03:57:10.613Z,32.31
2023-05-10T03:59:38.393Z,32.73
2023-05-10T04:02:07.514Z,32.37
2023-05-10T04:04:35.280Z,32.48
2023-05-10T04:07:03.200Z,32.51
2023-05-10T04:09:31.041Z,32.83
2023-05-10T04:11:58.831Z,32.55
2023-05-10T04:14:26.693Z,33.04
2023-05-10T04:16:54.529Z,33.06
2023-05-10T04:19:23.705Z,33.12
2023-05-10T04:21:51.476Z,32.77
2023-05-10T04:24:19.500Z,32.84
2023-05-10T04:26:47.548Z,33.26
2023-05-10T04:29:15.347Z,33.21
2023-05-10T04:31:43.330Z,33.41
2023-05-10T04:34:11.167Z,33.04
2023-05-10T04:36:40.306Z,33.27
2023-05-10T04:39:08.227Z,33.77
2023-05-10T04:41:36.171Z,33.99
2023-05-10T04:44:04.142Z,33.83
2023-05-10T04:46:32.357Z,33.57
2023-05-10T04:49:01.079Z,33.17
2023-05-10T04:51:28.934Z,33.77
2023-05-10T04:54:05.946Z,33.93
2023-05-10T04:56:35.602Z,33.83
2023-05-10T04:59:03.690Z,34.11
2023-05-10T05:01:31.523Z,33.96
2023-05-10T05:03:59.489Z,34.25
2023-05-10T05:06:28.256Z,34.72
2023-05-10T05:08:56.098Z,34.15
2023-05-10T05:11:26.551Z,34.47
2023-05-10T05:13:54.562Z,34.55
2023-05-10T05:16:22.501Z,34.71
2023-05-10T05:18:50.370Z,34.88
2023-05-10T05:21:19.132Z,34.79
2023-05-10T05:23:47.206Z,34.60
2023-05-10T05:26:16.050Z,34.82
2023-05-10T05:28:45.504Z,35.15
2023-05-10T05:31:13.306Z,35.02
2023-05-10T05:33:41.185Z,35.20
2023-05-10T05:36:09.224Z,35.22
2023-05-10T05:38:37.083Z,35.50
2023-05-10T05:41:05.052Z,35.49
2023-05-10T05:43:32.749Z,35.43
2023-05-10T05:46:01.906Z,35.62
2023-05-10T05:48:31.602Z,35.55
2023-05-10T05:50:59.644Z,35.99
2023-05-10T05:53:27.617Z,35.54
2023-05-10T05:55:56.078Z,35.80
2023-05-10T05:58:24.755Z,35.75
2023-05-10T06:00:54.260Z,36.19
2023-05-10T06:03:23.716Z,35.98
2023-05-10T06:05:55.749Z,36.08
2023-05-10T06:08:23.467Z,35.98
2023-05-10T06:10:51.198Z,35.95
2023-05-10T06:13:19.143Z,36.45
2023-05-10T06:15:47.296Z,36.47
2023-05-10T06:18:15.119Z,36.25
2023-05-10T06:20:44.939Z,36.62
2023-05-10T06:23:12.800Z,36.41
2023-05-10T06:25:40.563Z,36.56
2023-05-10T06:28:08.695Z,36.44
2023-05-10T06:30:38.632Z,36.67
2023-05-10T06:33:06.535Z,36.60
2023-05-10T06:35:34.700Z,36.79
2023-05-10T06:38:03.833Z,36.94
2023-05-10T06:40:31.638Z,36.83
2023-05-10T06:42:59.475Z,36.84
2023-05-10T06:45:27.316Z,37.01
2023-05-10T06:47:55.147Z,37.03
2023-05-10T06:50:23.131Z,37.04
2023-05-10T06:52:53.185Z,37.22
2023-05-10T06:55:22.771Z,37.26
2023-05-10T06:57:51.573Z,37.16
2023-05-10T07:00:21.126Z,37.49
2023-05-10T07:02:49.589Z,37.45
2023-05-10T07:05:17.911Z,37.44
2023-05-10T07:07:45.978Z,37.45
2023-05-10T07:10:13.751Z,37.67
2023-05-10T07:12:42.993Z,37.49
2023-05-10T07:15:11.492Z,37.62
2023-05-10T07:17:39.550Z,37.69
2023-05-10T07:20:09.245Z,37.81
2023-05-10T07:22:37.144Z,37.68
2023-05-10T07:25:05.329Z,37.78
2023-05-10T07:27:33.575Z,37.91
2023-05-10T07:30:02.697Z,37.92
2023-05-10T07:32:30.743Z,37.89
2023-05-10T07:34:58.672Z,37.89
2023-05-10T07:37:26.692Z,37.96
2023-05-10T07:39:54.467Z,37.90
2023-05-10T07:42:22.330Z,37.92
2023-05-10T07:44:50.109Z,38.03
2023-05-10T07:47:19.880Z,38.05
2023-05-10T07:49:47.697Z,37.87
2023-05-10T07:52:16.448Z,38.07
2023-05-10T07:54:44.326Z,37.99
2023-05-10T07:57:12.127Z,38.08
2023-05-10T07:59:39.921Z,37.98
2023-05-10T08:02:08.293Z,37.84
2023-05-10T08:04:37.554Z,37.93
2023-05-10T08:07:05.597Z,37.93
2023-05-10T08:09:33.437Z,37.98
2023-05-10T08:12:02.098Z,37.97
2023-05-10T08:14:31.477Z,38.06
2023-05-10T08:16:59.276Z,37.99
2023-05-10T08:19:27.079Z,38.06
2023-05-10T08:21:56.713Z,38.11
2023-05-10T08:24:24.922Z,37.98
2023-05-10T08:26:52.790Z,37.83
2023-05-10T08:29:21.610Z,37.84
2023-05-10T08:31:49.453Z,37.90
2023-05-10T08:34:17.426Z,37.76
2023-05-10T08:36:45.148Z,38.19
2023-05-10T08:39:26.610Z,37.75
2023-05-10T08:42:03.442Z,38.31
2023-05-10T08:44:32.967Z,37.77
2023-05-10T08:47:04.566Z,38.01
2023-05-10T08:49:33.791Z,37.99
2023-05-10T08:52:06.628Z,37.99
2023-05-10T08:54:36.526Z,38.02
2023-05-10T08:57:04.628Z,37.75
2023-05-10T08:59:32.957Z,37.97
2023-05-10T09:02:01.287Z,37.84
2023-05-10T09:04:30.326Z,37.85
2023-05-10T09:06:59.324Z,37.83
2023-05-10T09:09:27.847Z,37.64
2023-05-10T09:11:57.403Z,37.83
2023-05-10T09:14:28.167Z,37.67
2023-05-10T09:16:56.990Z,37.56
2023-05-10T09:19:25.041Z,37.41
2023-05-10T09:21:52.866Z,37.52
2023-05-10T09:24:20.815Z,37.55
2023-05-10T09:26:50.364Z,37.47
2023-05-10T09:29:19.576Z,37.46
2023-05-10T09:31:49.238Z,37.35
2023-05-10T09:34:19.972Z,37.24
2023-05-10T09:36:55.663Z,37.16
2023-05-10T09:39:32.426Z,36.99
2023-05-10T09:42:00.600Z,36.98
2023-05-10T09:44:29.790Z,37.23
2023-05-10T09:46:58.049Z,36.94
2023-05-10T09:49:25.986Z,37.07
2023-05-10T09:52:04.734Z,37.04
2023-05-10T09:54:33.128Z,36.97
2023-05-10T09:57:01.752Z,36.77
2023-05-10T09:59:36.218Z,36.74
2023-05-10T10:02:04.781Z,36.95
2023-05-10T10:04:33.825Z,36.87
2023-05-10T10:07:03.652Z,36.67
2023-05-10T10:09:32.078Z,36.33
2023-05-10T10:12:01.074Z,36.68
2023-05-10T10:14:29.439Z,36.60
2023-05-10T10:19:30.212Z,36.43
2023-05-10T10:21:58.613Z,36.32
2023-05-10T10:24:26.474Z,36.25
2023-05-10T10:26:57.327Z,36.11
2023-05-10T10:29:28.698Z,35.83
2023-05-10T10:32:10.064Z,36.08
2023-05-10T10:34:37.942Z,35.88
2023-05-10T10:37:07.648Z,35.85
2023-05-10T10:39:37.589Z,35.67
2023-05-10T10:42:06.521Z,35.54
2023-05-10T10:44:42.669Z,35.32
2023-05-10T10:47:30.123Z,35.34
2023-05-10T10:50:06.466Z,35.42
2023-05-10T10:52:35.524Z,35.46
2023-05-10T10:55:06.279Z,34.89
2023-05-10T10:57:35.716Z,35.21
2023-05-10T11:00:26.848Z,34.94
2023-05-10T11:02:58.140Z,34.77
2023-05-10T11:05:40.546Z,34.43
2023-05-10T11:08:17.292Z,34.71
2023-05-10T11:11:04.307Z,34.32
2023-05-10T11:13:33.923Z,34.26
2023-05-10T11:16:12.717Z,34.15
2023-05-10T11:18:42.178Z,34.50
2023-05-10T11:21:11.867Z,34.34
2023-05-10T11:23:53.211Z,33.82
2023-05-10T11:26:24.221Z,33.65
2023-05-10T11:28:52.269Z,33.66
2023-05-10T11:31:21.901Z,34.13
2023-05-10T11:33:53.093Z,33.65
2023-05-10T11:36:22.082Z,33.61
2023-05-10T11:38:50.583Z,33.63
2023-05-10T11:41:20.160Z,33.63
2023-05-10T11:43:50.027Z,33.45
2023-05-10T11:46:21.304Z,33.21
2023-05-10T11:48:52.228Z,33.11
2023-05-10T11:51:24.020Z,33.26
2023-05-10T11:53:52.608Z,33.28
2023-05-10T11:56:21.664Z,32.86
2023-05-10T11:58:56.484Z,32.68
2023-05-10T12:01:24.817Z,32.77
2023-05-10T12:03:59.619Z,32.83
2023-05-10T12:06:32.080Z,32.60
2023-05-10T12:09:08.084Z,32.34
2023-05-10T12:11:43.927Z,32.29
2023-05-10T12:14:12.538Z,32.66
2023-05-10T12:16:40.716Z,32.45
2023-05-10T12:19:10.185Z,32.24
2023-05-10T12:21:39.728Z,32.47
2023-05-10T12:24:07.777Z,32.36
2023-05-10T12:26:37.313Z,31.94
2023-05-10T12:32:02.409Z,31.67
2023-05-10T12:34:36.077Z,31.68
2023-05-10T12:37:04.894Z,31.90
2023-05-10T12:39:42.531Z,31.71
2023-05-10T12:42:10.441Z,31.79
2023-05-10T12:44:38.341Z,31.34
2023-05-10T12:47:06.873Z,31.31
2023-05-10T12:49:36.406Z,31.37
2023-05-10T12:52:04.291Z,30.98
2023-05-10T12:54:32.108Z,31.32
2023-05-10T12:57:00.069Z,31.27
2023-05-10T12:59:27.940Z,30.85
2023-05-10T13:01:57.156Z,30.81
2023-05-10T13:04:26.795Z,30.90
2023-05-10T13:06:59.470Z,30.87
2023-05-10T13:09:27.418Z,30.60
2023-05-10T13:11:55.281Z,30.39
2023-05-10T13:14:23.251Z,30.64
2023-05-10T13:16:51.135Z,30.41
2023-05-10T13:19:19.516Z,30.76
2023-05-10T13:21:47.492Z,30.33
2023-05-10T13:24:16.804Z,30.39
2023-05-10T13:26:45.188Z,30.30
2023-05-10T13:29:13.180Z,30.18
2023-05-10T13:31:41.002Z,30.14
2023-05-10T13:34:08.869Z,30.02
2023-05-10T13:36:36.648Z,30.16
2023-05-10T13:39:06.301Z,30.00
2023-05-10T13:41:35.562Z,29.90
2023-05-10T13:44:03.371Z,29.65
2023-05-10T13:46:31.649Z,29.82
2023-05-10T13:48:59.499Z,29.84
2023-05-10T13:51:27.418Z,29.70
2023-05-10T13:53:55.234Z,29.72
2023-05-10T13:56:23.084Z,29.43
2023-05-10T13:58:53.303Z,29.45
2023-05-10T14:01:21.190Z,29.52
2023-05-10T14:03:49.284Z,29.42
2023-05-10T14:06:20.915Z,29.35
2023-05-10T14:08:48.802Z,29.30
2023-05-10T14:11:16.633Z,29.63
2023-05-10T14:13:44.424Z,29.16
2023-05-10T14:16:15.734Z,29.14
2023-05-10T14:18:43.681Z,28.96
2023-05-10T14:21:11.520Z,29.31
2023-05-10T14:23:39.333Z,29.06
2023-05-10T14:26:07.462Z,29.06
2023-05-10T14:28:35.288Z,29.14
2023-05-10T14:31:03.473Z,28.87
2023-05-10T14:33:32.598Z,29.23
2023-05-10T14:36:01.058Z,28.68
2023-05-10T14:38:28.917Z,28.79
2023-05-10T14:40:56.995Z,29.12
2023-05-10T14:43:24.767Z,28.87
2023-05-10T14:45:52.705Z,28.85
2023-05-10T14:48:22.214Z,28.81
2023-05-10T14:50:53.547Z,28.69
2023-05-10T14:53:21.545Z,28.34
2023-05-10T14:55:49.320Z,28.66
2023-05-10T14:58:17.522Z,28.65
2023-05-10T15:00:45.572Z,28.34
2023-05-10T15:03:14.194Z,28.20
2023-05-10T15:05:42.547Z,28.10
2023-05-10T15:08:13.531Z,28.31
2023-05-10T15:10:41.330Z,28.02
2023-05-10T15:13:09.081Z,28.13
2023-05-10T15:15:37.110Z,27.96
2023-05-10T15:18:05.701Z,27.74
2023-05-10T15:20:33.534Z,28.11
2023-05-10T15:23:01.622Z,28.06
2023-05-10T15:25:30.916Z,27.73
2023-05-10T15:27:59.161Z,27.74
2023-05-10T15:30:27.035Z,27.79
2023-05-10T15:32:54.913Z,27.46
2023-05-10T15:35:22.926Z,27.76
2023-05-10T15:37:50.918Z,27.75
2023-05-10T15:40:19.049Z,27.65
2023-05-10T15:42:48.280Z,27.65
2023-05-10T15:45:16.843Z,27.47
2023-05-10T15:47:45.303Z,27.64
2023-05-10T15:50:13.423Z,27.43
2023-05-10T15:52:41.265Z,27.57
2023-05-10T15:55:14.164Z,27.39
2023-05-10T15:57:42.893Z,27.45
2023-05-10T16:00:13.938Z,27.21
2023-05-10T16:02:42.212Z,27.05
2023-05-10T16:05:10.893Z,27.15
2023-05-10T16:07:39.766Z,26.66
2023-05-10T16:10:09.768Z,27.09
2023-05-10T16:12:37.624Z,26.89
2023-05-10T16:15:05.990Z,26.96
2023-05-10T16:17:35.216Z,26.79
2023-05-10T16:20:03.167Z,26.75
2023-05-10T16:22:31.059Z,26.75
2023-05-10T16:25:00.760Z,26.63
2023-05-10T16:27:30.301Z,26.72
2023-05-10T16:29:58.275Z,26.58
2023-05-10T16:32:26.255Z,26.62
2023-05-10T16:34:55.410Z,26.59
2023-05-10T16:37:23.178Z,26.37
2023-05-10T16:39:51.050Z,26.29
2023-05-10T16:42:19.017Z,26.21
2023-05-10T16:44:47.596Z,26.23
2023-05-10T16:47:15.421Z,26.11
2023-05-10T16:49:43.289Z,26.18
2023-05-10T16:52:12.485Z,25.87
2023-05-10T16:54:40.345Z,26.11
2023-05-10T16:57:08.629Z,26.05
2023-05-10T16:59:36.537Z,26.00
2023-05-10T17:02:04.571Z,26.00
2023-05-10T17:04:32.430Z,25.90
2023-05-10T17:07:00.441Z,25.97
2023-05-10T17:09:29.627Z,25.86
2023-05-10T17:11:57.545Z,25.82
2023-05-10T17:14:26.160Z,25.72
2023-05-10T17:16:55.507Z,26.03
2023-05-10T17:19:26.434Z,25.89
2023-05-10T17:21:54.560Z,25.76
2023-05-10T17:24:22.423Z,25.60
2023-05-10T17:26:51.620Z,25.77
2023-05-10T17:29:19.470Z,25.95
2023-05-10T17:31:47.518Z,25.42
2023-05-10T17:34:15.379Z,25.51
2023-05-10T17:36:43.454Z,25.77
2023-05-10T17:39:11.287Z,25.82
2023-05-10T17:41:39.027Z,25.72
2023-05-10T17:44:08.422Z,25.38
2023-05-10T17:46:36.476Z,25.47
2023-05-10T17:49:04.345Z,25.57
2023-05-10T17:51:32.585Z,25.35
2023-05-10T17:54:00.353Z,25.71
2023-05-10T17:56:28.831Z,25.42
2023-05-10T17:58:56.767Z,25.50
2023-05-10T18:01:25.943Z,25.57
2023-05-10T18:03:53.875Z,25.84
2023-05-10T18:06:21.676Z,25.46
2023-05-10T18:08:49.444Z,25.37
2023-05-10T18:11:18.599Z,25.51
2023-05-10T18:13:48.061Z,25.32
2023-05-10T18:16:16.153Z,25.41
2023-05-10T18:18:45.391Z,25.17
2023-05-10T18:21:13.471Z,25.23
2023-05-10T18:23:41.193Z,25.45
2023-05-10T18:26:09.256Z,25.43
2023-05-10T18:28:37.578Z,25.26
2023-05-10T18:31:05.596Z,25.34
2023-05-10T18:33:33.484Z,25.47
2023-05-10T18:36:02.882Z,25.42
2023-05-10T18:38:31.011Z,25.34
2023-05-10T18:40:58.770Z,25.39
2023-05-10T18:43:26.646Z,25.29
2023-05-10T18:45:54.595Z,25.41
2023-05-10T18:48:22.456Z,25.27
2023-05-10T18:50:50.207Z,25.20
2023-05-10T18:53:19.379Z,25.28
2023-05-10T18:55:47.251Z,25.23
2023-05-10T18:58:15.081Z,25.04
2023-05-10T19:00:43.433Z,25.28
2023-05-10T19:03:12.069Z,25.39
2023-05-10T19:05:39.798Z,25.34
2023-05-10T19:08:07.734Z,25.25
2023-05-10T19:10:37.005Z,25.35
2023-05-10T19:13:04.979Z,25.37
2023-05-10T19:15:33.441Z,25.46
2023-05-10T19:18:05.109Z,25.49
2023-05-10T19:20:33.235Z,25.17
2023-05-10T19:23:09.546Z,25.29
2023-05-10T19:25:39.675Z,25.28
2023-05-10T19:28:09.676Z,24.53
2023-05-10T19:30:37.883Z,25.34
2023-05-10T19:33:06.113Z,24.98
2023-05-10T19:35:34.038Z,24.91
2023-05-10T19:38:02.143Z,25.17
2023-05-10T19:40:29.898Z,25.01
2023-05-10T19:43:00.494Z,25.06
2023-05-10T19:45:28.521Z,25.13
2023-05-10T19:47:56.417Z,24.62
2023-05-10T19:50:24.354Z,25.07
2023-05-10T19:52:52.421Z,24.92
2023-05-10T19:55:28.465Z,24.53
2023-05-10T19:57:56.687Z,25.00
2023-05-10T20:00:27.295Z,24.71
2023-05-10T20:02:55.400Z,25.29
2023-05-10T20:05:23.415Z,25.01
2023-05-10T20:07:51.587Z,24.76
2023-05-10T20:10:19.870Z,24.83
2023-05-10T20:12:52.439Z,24.65
2023-05-10T20:15:21.807Z,24.79
2023-05-10T20:17:52.716Z,25.04
2023-05-10T20:20:21.390Z,24.65
2023-05-10T20:22:50.448Z,24.83
2023-05-10T20:25:19.380Z,24.72
2023-05-10T20:27:47.298Z,24.76
2023-05-10T20:30:15.555Z,24.56
2023-05-10T20:32:43.715Z,24.62
2023-05-10T20:35:13.163Z,24.92
2023-05-10T20:37:41.883Z,24.86
2023-05-10T20:40:11.100Z,24.93
2023-05-10T20:42:38.927Z,25.07
2023-05-10T20:45:07.910Z,25.14
2023-05-10T20:47:36.832Z,24.88
2023-05-10T20:50:05.005Z,24.84
2023-05-10T20:52:34.141Z,25.10
2023-05-10T20:55:02.019Z,24.81
2023-05-10T20:57:29.846Z,24.88
2023-05-10T20:59:58.135Z,25.09
2023-05-10T21:02:26.116Z,25.23
2023-05-10T21:04:57.045Z,24.89
2023-05-10T21:07:25.624Z,24.93
2023-05-10T21:09:54.798Z,25.07
2023-05-10T21:12:22.585Z,25.02
2023-05-10T21:14:50.391Z,24.98
2023-05-10T21:17:20.001Z,24.89
2023-05-10T21:19:48.104Z,25.31
2023-05-10T21:22:16.082Z,25.02
2023-05-10T21:24:44.307Z,25.33
2023-05-10T21:27:13.455Z,24.93
2023-05-10T21:29:41.289Z,25.17
2023-05-10T21:32:09.652Z,24.95
2023-05-10T21:34:37.619Z,25.26
2023-05-10T21:37:05.451Z,25.18
2023-05-10T21:39:33.170Z,24.92
2023-05-10T21:42:00.919Z,25.10
2023-05-10T21:44:30.784Z,25.00
2023-05-10T21:46:58.505Z,25.17
2023-05-10T21:49:26.443Z,24.84
2023-05-10T21:51:54.345Z,25.25
2023-05-10T21:54:22.139Z,25.07
2023-05-10T21:56:49.863Z,25.46
2023-05-10T21:59:18.045Z,25.40
2023-05-10T22:01:47.390Z,25.31
2023-05-10T22:04:15.307Z,25.68
2023-05-10T22:06:43.118Z,25.41
2023-05-10T22:09:11.149Z,24.94
2023-05-10T22:11:38.988Z,25.56
2023-05-10T22:14:07.107Z,25.62
2023-05-10T22:16:35.530Z,25.57
2023-05-10T22:19:06.785Z,25.55
2023-05-10T22:21:34.684Z,25.61
2023-05-10T22:24:02.488Z,25.57
2023-05-10T22:26:30.574Z,25.07
2023-05-10T22:28:58.290Z,25.08
2023-05-10T22:31:26.195Z,25.34
2023-05-10T22:33:54.025Z,24.86
2023-05-10T22:36:23.299Z,25.38
2023-05-10T22:38:51.487Z,25.46
2023-05-10T22:41:19.331Z,25.45
2023-05-10T22:43:47.196Z,25.42
2023-05-10T22:46:15.368Z,25.08
2023-05-10T22:48:44.244Z,25.51
2023-05-10T22:51:12.087Z,25.32
2023-05-10T22:53:41.385Z,25.88
2023-05-10T22:56:09.208Z,25.46
2023-05-10T22:58:36.971Z,25.08
2023-05-10T23:01:05.410Z,25.84
2023-05-10T23:03:33.186Z,25.74
2023-05-10T23:06:00.973Z,25.34
2023-05-10T23:08:28.780Z,25.95
2023-05-10T23:10:57.865Z,25.27
2023-05-10T23:13:25.714Z,25.33
2023-05-10T23:15:53.679Z,25.53
2023-05-10T23:18:21.709Z,25.84
2023-05-10T23:20:49.449Z,25.75
